sensor_id;sensor_type;location;lat;lon;timestamp;pressure;altitude;pressure_sealevel;temperature
58909;BMP280;44690;48.154;17.102;2022-09-09T00:03:14;99415.34;;;13.99
58909;BMP280;44690;48.154;17.102;2022-09-09T00:06:28;99418.97;;;13.92
58909;BMP280;44690;48.154;17.102;2022-09-09T00:08:02;99421.59;;;13.90
58909;BMP280;44690;48.154;17.102;2022-09-09T00:09:40;99430.22;;;13.86
58909;BMP280;44690;48.154;17.102;2022-09-09T00:11:18;99429.25;;;13.82
58909;BMP280;44690;48.154;17.102;2022-09-09T00:13:05;99432.41;;;13.78
58909;BMP280;44690;48.154;17.102;2022-09-09T00:14:51;99424.69;;;13.75
58909;BMP280;44690;48.154;17.102;2022-09-09T00:16:27;99429.19;;;13.70
58909;BMP280;44690;48.154;17.102;2022-09-09T00:19:46;99425.94;;;13.62
58909;BMP280;44690;48.154;17.102;2022-09-09T00:24:57;99428.72;;;13.52
58909;BMP280;44690;48.154;17.102;2022-09-09T00:26:40;99419.13;;;13.51
58909;BMP280;44690;48.154;17.102;2022-09-09T00:28:18;99421.13;;;13.51
58909;BMP280;44690;48.154;17.102;2022-09-09T00:29:54;99418.50;;;13.53
58909;BMP280;44690;48.154;17.102;2022-09-09T00:31:28;99411.22;;;13.55
58909;BMP280;44690;48.154;17.102;2022-09-09T00:33:03;99405.16;;;13.57
58909;BMP280;44690;48.154;17.102;2022-09-09T00:34:52;99408.69;;;13.59
58909;BMP280;44690;48.154;17.102;2022-09-09T00:36:25;99399.97;;;13.61
58909;BMP280;44690;48.154;17.102;2022-09-09T00:38:01;99413.72;;;13.63
58909;BMP280;44690;48.154;17.102;2022-09-09T00:39:37;99404.97;;;13.65
58909;BMP280;44690;48.154;17.102;2022-09-09T00:42:45;99408.53;;;13.67
58909;BMP280;44690;48.154;17.102;2022-09-09T00:44:25;99403.06;;;13.67
58909;BMP280;44690;48.154;17.102;2022-09-09T00:50:48;99412.69;;;13.68
58909;BMP280;44690;48.154;17.102;2022-09-09T00:55:39;99417.94;;;13.76
58909;BMP280;44690;48.154;17.102;2022-09-09T00:57:27;99422.84;;;13.77
58909;BMP280;44690;48.154;17.102;2022-09-09T00:59:07;99418.78;;;13.78
58909;BMP280;44690;48.154;17.102;2022-09-09T01:00:43;99421.63;;;13.80
58909;BMP280;44690;48.154;17.102;2022-09-09T01:02:29;99417.03;;;13.83
58909;BMP280;44690;48.154;17.102;2022-09-09T01:04:04;99420.59;;;13.85
58909;BMP280;44690;48.154;17.102;2022-09-09T01:07:23;99418.16;;;13.89
58909;BMP280;44690;48.154;17.102;2022-09-09T01:09:00;99416.25;;;13.92
58909;BMP280;44690;48.154;17.102;2022-09-09T01:10:50;99418.38;;;13.94
58909;BMP280;44690;48.154;17.102;2022-09-09T01:12:39;99419.84;;;13.95
58909;BMP280;44690;48.154;17.102;2022-09-09T01:16:07;99429.28;;;13.94
58909;BMP280;44690;48.154;17.102;2022-09-09T01:19:21;99425.84;;;13.93
58909;BMP280;44690;48.154;17.102;2022-09-09T01:21:02;99425.13;;;13.93
58909;BMP280;44690;48.154;17.102;2022-09-09T01:24:27;99431.06;;;13.89
58909;BMP280;44690;48.154;17.102;2022-09-09T01:26:20;99429.78;;;13.90
58909;BMP280;44690;48.154;17.102;2022-09-09T01:27:56;99433.19;;;13.90
58909;BMP280;44690;48.154;17.102;2022-09-09T01:29:30;99429.78;;;13.90
58909;BMP280;44690;48.154;17.102;2022-09-09T01:31:06;99432.34;;;13.88
58909;BMP280;44690;48.154;17.102;2022-09-09T01:32:50;99443.28;;;13.88
58909;BMP280;44690;48.154;17.102;2022-09-09T01:34:24;99449.44;;;13.88
58909;BMP280;44690;48.154;17.102;2022-09-09T01:36:01;99448.88;;;13.90
58909;BMP280;44690;48.154;17.102;2022-09-09T01:37:41;99436.19;;;13.95
58909;BMP280;44690;48.154;17.102;2022-09-09T01:39:13;99439.03;;;13.97
58909;BMP280;44690;48.154;17.102;2022-09-09T01:40:48;99433.59;;;13.97
58909;BMP280;44690;48.154;17.102;2022-09-09T01:42:21;99435.13;;;14.00
58909;BMP280;44690;48.154;17.102;2022-09-09T01:43:53;99438.59;;;14.00
58909;BMP280;44690;48.154;17.102;2022-09-09T01:45:27;99437.16;;;13.99
58909;BMP280;44690;48.154;17.102;2022-09-09T01:46:59;99432.00;;;13.94
58909;BMP280;44690;48.154;17.102;2022-09-09T01:48:31;99445.09;;;13.95
58909;BMP280;44690;48.154;17.102;2022-09-09T01:50:10;99434.75;;;13.94
58909;BMP280;44690;48.154;17.102;2022-09-09T01:51:43;99442.81;;;13.92
58909;BMP280;44690;48.154;17.102;2022-09-09T01:53:19;99433.66;;;13.87
58909;BMP280;44690;48.154;17.102;2022-09-09T01:54:52;99432.78;;;13.84
58909;BMP280;44690;48.154;17.102;2022-09-09T01:56:32;99433.41;;;13.83
58909;BMP280;44690;48.154;17.102;2022-09-09T02:03:22;99426.66;;;13.84
58909;BMP280;44690;48.154;17.102;2022-09-09T02:06:47;99435.53;;;13.84
58909;BMP280;44690;48.154;17.102;2022-09-09T02:08:29;99440.41;;;13.86
58909;BMP280;44690;48.154;17.102;2022-09-09T02:10:09;99441.84;;;13.87
58909;BMP280;44690;48.154;17.102;2022-09-09T02:11:49;99448.00;;;13.87
58909;BMP280;44690;48.154;17.102;2022-09-09T02:13:34;99438.66;;;13.90
58909;BMP280;44690;48.154;17.102;2022-09-09T02:17:09;99436.63;;;13.91
58909;BMP280;44690;48.154;17.102;2022-09-09T02:21:15;99438.06;;;13.92
58909;BMP280;44690;48.154;17.102;2022-09-09T02:22:49;99434.03;;;13.93
58909;BMP280;44690;48.154;17.102;2022-09-09T02:24:23;99432.00;;;13.94
58909;BMP280;44690;48.154;17.102;2022-09-09T02:26:07;99438.94;;;13.95
58909;BMP280;44690;48.154;17.102;2022-09-09T02:27:41;99434.91;;;13.96
58909;BMP280;44690;48.154;17.102;2022-09-09T02:29:19;99431.47;;;13.95
58909;BMP280;44690;48.154;17.102;2022-09-09T02:30:53;99442.22;;;13.93
58909;BMP280;44690;48.154;17.102;2022-09-09T02:32:33;99439.38;;;13.91
58909;BMP280;44690;48.154;17.102;2022-09-09T02:34:07;99441.50;;;13.93
58909;BMP280;44690;48.154;17.102;2022-09-09T02:35:42;99434.75;;;13.94
58909;BMP280;44690;48.154;17.102;2022-09-09T02:37:18;99440.19;;;13.94
58909;BMP280;44690;48.154;17.102;2022-09-09T02:38:53;99444.38;;;13.95
58909;BMP280;44690;48.154;17.102;2022-09-09T02:40:30;99433.31;;;13.93
58909;BMP280;44690;48.154;17.102;2022-09-09T02:42:05;99436.63;;;13.91
58909;BMP280;44690;48.154;17.102;2022-09-09T02:43:40;99448.25;;;13.92
58909;BMP280;44690;48.154;17.102;2022-09-09T02:45:17;99447.09;;;13.95
58909;BMP280;44690;48.154;17.102;2022-09-09T02:48:30;99441.31;;;14.00
58909;BMP280;44690;48.154;17.102;2022-09-09T02:51:57;99443.44;;;14.02
58909;BMP280;44690;48.154;17.102;2022-09-09T02:58:46;99439.75;;;13.97
58909;BMP280;44690;48.154;17.102;2022-09-09T03:00:22;99439.03;;;13.97
58909;BMP280;44690;48.154;17.102;2022-09-09T03:01:56;99432.88;;;13.96
58909;BMP280;44690;48.154;17.102;2022-09-09T03:03:28;99436.91;;;13.95
58909;BMP280;44690;48.154;17.102;2022-09-09T03:05:01;99438.22;;;13.94
58909;BMP280;44690;48.154;17.102;2022-09-09T03:06:33;99433.31;;;13.93
58909;BMP280;44690;48.154;17.102;2022-09-09T03:08:15;99436.63;;;13.91
58909;BMP280;44690;48.154;17.102;2022-09-09T03:09:48;99437.34;;;13.92
58909;BMP280;44690;48.154;17.102;2022-09-09T03:11:21;99443.50;;;13.92
58909;BMP280;44690;48.154;17.102;2022-09-09T03:12:54;99440.06;;;13.92
58909;BMP280;44690;48.154;17.102;2022-09-09T03:14:27;99446.97;;;13.93
58909;BMP280;44690;48.154;17.102;2022-09-09T03:15:59;99446.41;;;13.94
58909;BMP280;44690;48.154;17.102;2022-09-09T03:17:35;99440.44;;;13.98
58909;BMP280;44690;48.154;17.102;2022-09-09T03:19:07;99434.00;;;14.03
58909;BMP280;44690;48.154;17.102;2022-09-09T03:20:39;99437.69;;;14.07
58909;BMP280;44690;48.154;17.102;2022-09-09T03:22:15;99437.78;;;14.09
58909;BMP280;44690;48.154;17.102;2022-09-09T03:23:49;99439.94;;;14.11
58909;BMP280;44690;48.154;17.102;2022-09-09T03:25:21;99445.53;;;14.13
58909;BMP280;44690;48.154;17.102;2022-09-09T03:26:56;99445.66;;;14.15
58909;BMP280;44690;48.154;17.102;2022-09-09T03:28:28;99444.47;;;14.18
58909;BMP280;44690;48.154;17.102;2022-09-09T03:30:05;99442.59;;;14.21
58909;BMP280;44690;48.154;17.102;2022-09-09T03:31:38;99439.97;;;14.23
58909;BMP280;44690;48.154;17.102;2022-09-09T03:33:10;99436.09;;;14.26
58909;BMP280;44690;48.154;17.102;2022-09-09T03:34:44;99432.16;;;14.29
58909;BMP280;44690;48.154;17.102;2022-09-09T03:36:18;99426.28;;;14.32
58909;BMP280;44690;48.154;17.102;2022-09-09T03:37:50;99431.81;;;14.34
58909;BMP280;44690;48.154;17.102;2022-09-09T03:39:23;99427.22;;;14.37
58909;BMP280;44690;48.154;17.102;2022-09-09T03:40:56;99418.53;;;14.40
58909;BMP280;44690;48.154;17.102;2022-09-09T03:42:30;99422.84;;;14.43
58909;BMP280;44690;48.154;17.102;2022-09-09T03:44:04;99427.09;;;14.46
58909;BMP280;44690;48.154;17.102;2022-09-09T03:45:45;99421.28;;;14.52
58909;BMP280;44690;48.154;17.102;2022-09-09T03:47:20;99424.28;;;14.56
58909;BMP280;44690;48.154;17.102;2022-09-09T03:48:56;99426.41;;;14.58
58909;BMP280;44690;48.154;17.102;2022-09-09T03:50:29;99430.69;;;14.61
58909;BMP280;44690;48.154;17.102;2022-09-09T03:52:01;99423.22;;;14.61
58909;BMP280;44690;48.154;17.102;2022-09-09T03:53:33;99432.97;;;14.64
58909;BMP280;44690;48.154;17.102;2022-09-09T03:55:07;99433.81;;;14.67
58909;BMP280;44690;48.154;17.102;2022-09-09T03:56:41;99428.59;;;14.71
58909;BMP280;44690;48.154;17.102;2022-09-09T03:58:16;99419.91;;;14.74
58909;BMP280;44690;48.154;17.102;2022-09-09T03:59:51;99419.31;;;14.76
58909;BMP280;44690;48.154;17.102;2022-09-09T04:01:24;99427.63;;;14.78
58909;BMP280;44690;48.154;17.102;2022-09-09T04:02:56;99427.06;;;14.79
58909;BMP280;44690;48.154;17.102;2022-09-09T04:04:29;99419.66;;;14.82
58909;BMP280;44690;48.154;17.102;2022-09-09T04:06:03;99419.66;;;14.82
58909;BMP280;44690;48.154;17.102;2022-09-09T04:07:37;99423.97;;;14.85
58909;BMP280;44690;48.154;17.102;2022-09-09T04:09:09;99434.19;;;14.85
58909;BMP280;44690;48.154;17.102;2022-09-09T04:10:41;99432.88;;;14.86
58909;BMP280;44690;48.154;17.102;2022-09-09T04:12:13;99428.84;;;14.87
58909;BMP280;44690;48.154;17.102;2022-09-09T04:13:46;99428.13;;;14.86
58909;BMP280;44690;48.154;17.102;2022-09-09T04:15:18;99424.06;;;14.87
58909;BMP280;44690;48.154;17.102;2022-09-09T04:16:51;99420.66;;;14.87
58909;BMP280;44690;48.154;17.102;2022-09-09T04:18:23;99423.97;;;14.85
58909;BMP280;44690;48.154;17.102;2022-09-09T04:19:56;99417.19;;;14.86
58909;BMP280;44690;48.154;17.102;2022-09-09T04:21:29;99418.50;;;14.85
58909;BMP280;44690;48.154;17.102;2022-09-09T04:23:03;99418.50;;;14.85
58909;BMP280;44690;48.154;17.102;2022-09-09T04:24:36;99427.53;;;14.88
58909;BMP280;44690;48.154;17.102;2022-09-09T04:26:08;99428.97;;;14.89
58909;BMP280;44690;48.154;17.102;2022-09-09T04:27:41;99442.03;;;14.90
58909;BMP280;44690;48.154;17.102;2022-09-09T04:29:14;99440.81;;;14.93
58909;BMP280;44690;48.154;17.102;2022-09-09T04:30:46;99445.13;;;14.96
58909;BMP280;44690;48.154;17.102;2022-09-09T04:32:19;99448.06;;;15.00
58909;BMP280;44690;48.154;17.102;2022-09-09T04:33:51;99446.19;;;15.03
58909;BMP280;44690;48.154;17.102;2022-09-09T04:35:24;99444.28;;;15.05
58909;BMP280;44690;48.154;17.102;2022-09-09T04:36:56;99447.72;;;15.06
58909;BMP280;44690;48.154;17.102;2022-09-09T04:38:29;99451.88;;;15.07
58909;BMP280;44690;48.154;17.102;2022-09-09T04:40:02;99453.91;;;15.06
58909;BMP280;44690;48.154;17.102;2022-09-09T04:41:35;99449.03;;;15.05
58909;BMP280;44690;48.154;17.102;2022-09-09T04:43:08;99455.09;;;15.03
58909;BMP280;44690;48.154;17.102;2022-09-09T04:44:45;99450.94;;;15.02
58909;BMP280;44690;48.154;17.102;2022-09-09T04:46:18;99450.22;;;15.02
58909;BMP280;44690;48.154;17.102;2022-09-09T04:47:52;99455.69;;;15.02
58909;BMP280;44690;48.154;17.102;2022-09-09T04:49:25;99454.97;;;15.01
58909;BMP280;44690;48.154;17.102;2022-09-09T04:51:00;99458.44;;;15.02
58909;BMP280;44690;48.154;17.102;2022-09-09T04:52:34;99461.28;;;15.04
58909;BMP280;44690;48.154;17.102;2022-09-09T04:54:07;99457.84;;;15.03
58909;BMP280;44690;48.154;17.102;2022-09-09T04:55:40;99465.44;;;15.05
58909;BMP280;44690;48.154;17.102;2022-09-09T04:57:13;99463.53;;;15.07
58909;BMP280;44690;48.154;17.102;2022-09-09T04:58:51;99460.31;;;15.11
58909;BMP280;44690;48.154;17.102;2022-09-09T05:00:26;99467.34;;;15.14
58909;BMP280;44690;48.154;17.102;2022-09-09T05:01:59;99464.84;;;15.18
58909;BMP280;44690;48.154;17.102;2022-09-09T05:03:33;99458.91;;;15.22
58909;BMP280;44690;48.154;17.102;2022-09-09T05:05:06;99458.56;;;15.27
58909;BMP280;44690;48.154;17.102;2022-09-09T05:06:38;99458.88;;;15.33
58909;BMP280;44690;48.154;17.102;2022-09-09T05:08:10;99461.97;;;15.39
58909;BMP280;44690;48.154;17.102;2022-09-09T05:09:43;99461.59;;;15.45
58909;BMP280;44690;48.154;17.102;2022-09-09T05:11:26;99464.69;;;15.51
58909;BMP280;44690;48.154;17.102;2022-09-09T05:13:06;99468.72;;;15.62
58909;BMP280;44690;48.154;17.102;2022-09-09T05:14:38;99467.16;;;15.70
58909;BMP280;44690;48.154;17.102;2022-09-09T05:16:12;99467.59;;;15.79
58909;BMP280;44690;48.154;17.102;2022-09-09T05:17:45;99475.03;;;15.90
58909;BMP280;44690;48.154;17.102;2022-09-09T05:19:17;99477.75;;;16.01
58909;BMP280;44690;48.154;17.102;2022-09-09T05:20:58;99475.69;;;16.14
58909;BMP280;44690;48.154;17.102;2022-09-09T05:22:30;99474.88;;;16.37
58909;BMP280;44690;48.154;17.102;2022-09-09T05:24:03;99479.75;;;16.91
58909;BMP280;44690;48.154;17.102;2022-09-09T05:25:35;99478.00;;;17.66
58909;BMP280;44690;48.154;17.102;2022-09-09T05:27:07;99476.13;;;18.14
58909;BMP280;44690;48.154;17.102;2022-09-09T05:28:43;99483.72;;;18.76
58909;BMP280;44690;48.154;17.102;2022-09-09T05:30:15;99482.28;;;19.25
58909;BMP280;44690;48.154;17.102;2022-09-09T05:31:47;99477.72;;;20.00
58909;BMP280;44690;48.154;17.102;2022-09-09T05:33:24;99475.13;;;20.42
58909;BMP280;44690;48.154;17.102;2022-09-09T05:34:57;99482.06;;;20.43
58909;BMP280;44690;48.154;17.102;2022-09-09T05:36:30;99484.28;;;20.29
58909;BMP280;44690;48.154;17.102;2022-09-09T05:38:02;99495.25;;;20.27
58909;BMP280;44690;48.154;17.102;2022-09-09T05:39:34;99484.72;;;20.41
58909;BMP280;44690;48.154;17.102;2022-09-09T05:41:09;99487.09;;;20.68
58909;BMP280;44690;48.154;17.102;2022-09-09T05:42:42;99484.34;;;21.10
58909;BMP280;44690;48.154;17.102;2022-09-09T05:44:15;99483.09;;;21.57
58909;BMP280;44690;48.154;17.102;2022-09-09T05:45:47;99480.56;;;22.11
58909;BMP280;44690;48.154;17.102;2022-09-09T05:47:21;99486.97;;;22.67
58909;BMP280;44690;48.154;17.102;2022-09-09T05:48:53;99484.44;;;23.33
58909;BMP280;44690;48.154;17.102;2022-09-09T05:50:32;99489.34;;;23.98
58909;BMP280;44690;48.154;17.102;2022-09-09T05:52:04;99486.31;;;24.56
58909;BMP280;44690;48.154;17.102;2022-09-09T05:53:37;99484.41;;;25.09
58909;BMP280;44690;48.154;17.102;2022-09-09T05:55:10;99483.00;;;25.54
58909;BMP280;44690;48.154;17.102;2022-09-09T05:56:42;99486.50;;;26.11
58909;BMP280;44690;48.154;17.102;2022-09-09T05:58:14;99479.34;;;26.60
58909;BMP280;44690;48.154;17.102;2022-09-09T05:59:49;99479.63;;;26.97
58909;BMP280;44690;48.154;17.102;2022-09-09T06:02:53;99472.94;;;27.40
58909;BMP280;44690;48.154;17.102;2022-09-09T06:04:26;99465.41;;;27.67
58909;BMP280;44690;48.154;17.102;2022-09-09T06:06:02;99464.09;;;27.90
58909;BMP280;44690;48.154;17.102;2022-09-09T06:07:37;99462.69;;;27.93
58909;BMP280;44690;48.154;17.102;2022-09-09T06:09:09;99462.69;;;27.89
58909;BMP280;44690;48.154;17.102;2022-09-09T06:10:45;99474.59;;;28.12
58909;BMP280;44690;48.154;17.102;2022-09-09T06:12:17;99471.16;;;28.40
58909;BMP280;44690;48.154;17.102;2022-09-09T06:13:50;99473.25;;;28.38
58909;BMP280;44690;48.154;17.102;2022-09-09T06:15:26;99474.66;;;28.61
58909;BMP280;44690;48.154;17.102;2022-09-09T06:16:58;99477.44;;;28.91
58909;BMP280;44690;48.154;17.102;2022-09-09T06:18:34;99476.63;;;29.39
58909;BMP280;44690;48.154;17.102;2022-09-09T06:20:07;99477.06;;;29.91
58909;BMP280;44690;48.154;17.102;2022-09-09T06:21:41;99474.03;;;30.27
58909;BMP280;44690;48.154;17.102;2022-09-09T06:23:15;99473.88;;;30.45
58909;BMP280;44690;48.154;17.102;2022-09-09T06:24:48;99463.81;;;30.75
58909;BMP280;44690;48.154;17.102;2022-09-09T06:26:24;99477.53;;;31.01
58909;BMP280;44690;48.154;17.102;2022-09-09T06:27:57;99471.56;;;31.33
58909;BMP280;44690;48.154;17.102;2022-09-09T06:29:29;99467.84;;;31.51
58909;BMP280;44690;48.154;17.102;2022-09-09T06:31:03;99469.84;;;31.59
58909;BMP280;44690;48.154;17.102;2022-09-09T06:32:36;99468.09;;;31.84
58909;BMP280;44690;48.154;17.102;2022-09-09T06:34:09;99466.31;;;32.07
58909;BMP280;44690;48.154;17.102;2022-09-09T06:35:50;99468.31;;;32.15
58909;BMP280;44690;48.154;17.102;2022-09-09T06:37:25;99462.09;;;32.49
58909;BMP280;44690;48.154;17.102;2022-09-09T06:38:58;99458.34;;;32.63
58909;BMP280;44690;48.154;17.102;2022-09-09T06:40:31;99459.69;;;32.68
58909;BMP280;44690;48.154;17.102;2022-09-09T06:42:03;99453.09;;;32.82
58909;BMP280;44690;48.154;17.102;2022-09-09T06:43:59;99459.28;;;32.88
58909;BMP280;44690;48.154;17.102;2022-09-09T06:45:38;99459.13;;;32.97
58909;BMP280;44690;48.154;17.102;2022-09-09T06:47:12;99458.94;;;33.07
58909;BMP280;44690;48.154;17.102;2022-09-09T06:48:46;99465.88;;;33.12
58909;BMP280;44690;48.154;17.102;2022-09-09T06:50:20;99461.09;;;33.04
58909;BMP280;44690;48.154;17.102;2022-09-09T06:51:53;99458.44;;;32.96
58909;BMP280;44690;48.154;17.102;2022-09-09T06:53:26;99462.22;;;32.82
58909;BMP280;44690;48.154;17.102;2022-09-09T06:54:59;99463.72;;;32.77
58909;BMP280;44690;48.154;17.102;2022-09-09T06:56:32;99457.50;;;32.71
58909;BMP280;44690;48.154;17.102;2022-09-09T06:58:09;99458.91;;;32.72
58909;BMP280;44690;48.154;17.102;2022-09-09T06:59:42;99459.66;;;32.70
58909;BMP280;44690;48.154;17.102;2022-09-09T07:01:15;99467.19;;;32.80
58909;BMP280;44690;48.154;17.102;2022-09-09T07:02:48;99472.41;;;33.00
58909;BMP280;44690;48.154;17.102;2022-09-09T07:04:23;99471.41;;;33.16
58909;BMP280;44690;48.154;17.102;2022-09-09T07:05:55;99482.22;;;33.36
58909;BMP280;44690;48.154;17.102;2022-09-09T07:07:29;99480.31;;;33.59
58909;BMP280;44690;48.154;17.102;2022-09-09T07:09:04;99484.97;;;33.71
58909;BMP280;44690;48.154;17.102;2022-09-09T07:10:37;99479.09;;;33.81
58909;BMP280;44690;48.154;17.102;2022-09-09T07:12:12;99486.03;;;33.86
58909;BMP280;44690;48.154;17.102;2022-09-09T07:13:52;99481.88;;;33.83
58909;BMP280;44690;48.154;17.102;2022-09-09T07:15:25;99480.78;;;33.70
58909;BMP280;44690;48.154;17.102;2022-09-09T07:16:58;99484.25;;;33.40
58909;BMP280;44690;48.154;17.102;2022-09-09T07:18:36;99483.41;;;32.77
58909;BMP280;44690;48.154;17.102;2022-09-09T07:20:08;99473.25;;;32.12
58909;BMP280;44690;48.154;17.102;2022-09-09T07:21:41;99473.47;;;31.51
58909;BMP280;44690;48.154;17.102;2022-09-09T07:23:16;99470.66;;;30.94
58909;BMP280;44690;48.154;17.102;2022-09-09T07:24:48;99466.81;;;30.52
58909;BMP280;44690;48.154;17.102;2022-09-09T07:26:22;99468.44;;;30.25
58909;BMP280;44690;48.154;17.102;2022-09-09T07:27:56;99474.19;;;30.05
58909;BMP280;44690;48.154;17.102;2022-09-09T07:29:28;99479.66;;;30.21
58909;BMP280;44690;48.154;17.102;2022-09-09T07:31:01;99480.38;;;30.23
58909;BMP280;44690;48.154;17.102;2022-09-09T07:32:35;99478.72;;;30.51
58909;BMP280;44690;48.154;17.102;2022-09-09T07:34:08;99479.19;;;30.76
58909;BMP280;44690;48.154;17.102;2022-09-09T07:35:40;99474.03;;;31.00
58909;BMP280;44690;48.154;17.102;2022-09-09T07:37:14;99473.00;;;31.30
58909;BMP280;44690;48.154;17.102;2022-09-09T07:38:49;99471.88;;;31.64
58909;BMP280;44690;48.154;17.102;2022-09-09T07:40:23;99476.31;;;31.98
58909;BMP280;44690;48.154;17.102;2022-09-09T07:41:55;99481.09;;;32.06
58909;BMP280;44690;48.154;17.102;2022-09-09T07:43:28;99474.09;;;32.05
58909;BMP280;44690;48.154;17.102;2022-09-09T07:45:00;99483.81;;;32.12
58909;BMP280;44690;48.154;17.102;2022-09-09T07:46:34;99477.56;;;32.07
58909;BMP280;44690;48.154;17.102;2022-09-09T07:48:08;99479.13;;;31.96
58909;BMP280;44690;48.154;17.102;2022-09-09T07:49:40;99464.88;;;31.61
58909;BMP280;44690;48.154;17.102;2022-09-09T07:51:14;99468.09;;;31.33
58909;BMP280;44690;48.154;17.102;2022-09-09T07:52:53;99469.00;;;31.15
58909;BMP280;44690;48.154;17.102;2022-09-09T07:54:25;99458.47;;;31.16
58909;BMP280;44690;48.154;17.102;2022-09-09T07:56:05;99465.34;;;31.25
58909;BMP280;44690;48.154;17.102;2022-09-09T07:57:37;99465.97;;;31.33
58909;BMP280;44690;48.154;17.102;2022-09-09T07:59:11;99467.22;;;31.45
58909;BMP280;44690;48.154;17.102;2022-09-09T08:00:45;99464.59;;;31.32
58909;BMP280;44690;48.154;17.102;2022-09-09T08:02:17;99469.78;;;31.08
58909;BMP280;44690;48.154;17.102;2022-09-09T08:04:00;99467.63;;;31.12
58909;BMP280;44690;48.154;17.102;2022-09-09T08:05:36;99467.47;;;31.22
58909;BMP280;44690;48.154;17.102;2022-09-09T08:07:11;99468.47;;;30.98
58909;BMP280;44690;48.154;17.102;2022-09-09T08:08:51;99468.66;;;30.80
58909;BMP280;44690;48.154;17.102;2022-09-09T08:10:24;99467.38;;;30.67
58909;BMP280;44690;48.154;17.102;2022-09-09T08:11:58;99461.16;;;30.60
58909;BMP280;44690;48.154;17.102;2022-09-09T08:13:30;99457.00;;;30.53
58909;BMP280;44690;48.154;17.102;2022-09-09T08:15:03;99454.28;;;30.47
58909;BMP280;44690;48.154;17.102;2022-09-09T08:16:39;99458.53;;;30.38
58909;BMP280;44690;48.154;17.102;2022-09-09T08:18:12;99460.19;;;30.05
58909;BMP280;44690;48.154;17.102;2022-09-09T08:19:45;99463.78;;;29.89
58909;BMP280;44690;48.154;17.102;2022-09-09T08:21:25;99462.41;;;29.84
58909;BMP280;44690;48.154;17.102;2022-09-09T08:23:01;99463.03;;;29.99
58909;BMP280;44690;48.154;17.102;2022-09-09T08:24:34;99459.38;;;30.22
58909;BMP280;44690;48.154;17.102;2022-09-09T08:26:10;99457.16;;;30.35
58909;BMP280;44690;48.154;17.102;2022-09-09T08:27:43;99464.75;;;30.49
58909;BMP280;44690;48.154;17.102;2022-09-09T08:29:15;99466.66;;;30.73
58909;BMP280;44690;48.154;17.102;2022-09-09T08:30:49;99469.13;;;31.01
58909;BMP280;44690;48.154;17.102;2022-09-09T08:32:21;99473.06;;;31.26
58909;BMP280;44690;48.154;17.102;2022-09-09T08:33:55;99470.06;;;31.43
58909;BMP280;44690;48.154;17.102;2022-09-09T08:35:27;99464.38;;;31.49
58909;BMP280;44690;48.154;17.102;2022-09-09T08:37:05;99473.31;;;31.61
58909;BMP280;44690;48.154;17.102;2022-09-09T08:38:42;99469.66;;;31.73
58909;BMP280;44690;48.154;17.102;2022-09-09T08:40:17;99467.47;;;31.77
58909;BMP280;44690;48.154;17.102;2022-09-09T08:43:39;99469.31;;;31.44
58909;BMP280;44690;48.154;17.102;2022-09-09T08:46:51;99469.91;;;30.95
58909;BMP280;44690;48.154;17.102;2022-09-09T08:48:39;99468.03;;;30.74
58909;BMP280;44690;48.154;17.102;2022-09-09T08:52:01;99462.66;;;30.51
58909;BMP280;44690;48.154;17.102;2022-09-09T08:53:41;99459.91;;;30.43
58909;BMP280;44690;48.154;17.102;2022-09-09T08:55:20;99467.00;;;30.32
58909;BMP280;44690;48.154;17.102;2022-09-09T08:56:53;99461.44;;;30.24
58909;BMP280;44690;48.154;17.102;2022-09-09T08:58:30;99462.88;;;30.19
58909;BMP280;44690;48.154;17.102;2022-09-09T09:00:09;99467.13;;;30.14
58909;BMP280;44690;48.154;17.102;2022-09-09T09:05:23;99465.81;;;30.03
58909;BMP280;44690;48.154;17.102;2022-09-09T09:07:04;99465.16;;;29.96
58909;BMP280;44690;48.154;17.102;2022-09-09T09:08:51;99468.00;;;29.84
58909;BMP280;44690;48.154;17.102;2022-09-09T09:12:21;99473.69;;;29.68
58909;BMP280;44690;48.154;17.102;2022-09-09T09:13:59;99467.50;;;29.49
58909;BMP280;44690;48.154;17.102;2022-09-09T09:15:37;99474.50;;;29.38
58909;BMP280;44690;48.154;17.102;2022-09-09T09:17:21;99473.19;;;29.25
58909;BMP280;44690;48.154;17.102;2022-09-09T09:18:57;99468.28;;;29.13
58909;BMP280;44690;48.154;17.102;2022-09-09T09:20:38;99464.16;;;28.92
58909;BMP280;44690;48.154;17.102;2022-09-09T09:22:16;99471.16;;;28.77
58909;BMP280;44690;48.154;17.102;2022-09-09T09:23:57;99476.06;;;28.56
58909;BMP280;44690;48.154;17.102;2022-09-09T09:25:34;99464.16;;;28.29
58909;BMP280;44690;48.154;17.102;2022-09-09T09:27:18;99467.59;;;28.03
58909;BMP280;44690;48.154;17.102;2022-09-09T09:28:56;99464.78;;;27.85
58909;BMP280;44690;48.154;17.102;2022-09-09T09:30:29;99468.88;;;27.66
58909;BMP280;44690;48.154;17.102;2022-09-09T09:32:11;99463.97;;;27.54
58909;BMP280;44690;48.154;17.102;2022-09-09T09:33:47;99464.53;;;27.30
58909;BMP280;44690;48.154;17.102;2022-09-09T09:35:21;99463.03;;;27.17
58909;BMP280;44690;48.154;17.102;2022-09-09T09:36:54;99470.00;;;27.12
58909;BMP280;44690;48.154;17.102;2022-09-09T09:38:30;99465.03;;;27.02
58909;BMP280;44690;48.154;17.102;2022-09-09T09:40:22;99464.28;;;26.94
58909;BMP280;44690;48.154;17.102;2022-09-09T09:41:55;99462.16;;;26.88
58909;BMP280;44690;48.154;17.102;2022-09-09T09:43:29;99460.66;;;26.75
58909;BMP280;44690;48.154;17.102;2022-09-09T09:45:15;99454.94;;;26.54
58909;BMP280;44690;48.154;17.102;2022-09-09T09:46:50;99456.13;;;26.31
58909;BMP280;44690;48.154;17.102;2022-09-09T09:48:22;99446.81;;;26.04
58909;BMP280;44690;48.154;17.102;2022-09-09T09:49:57;99448.75;;;25.96
58909;BMP280;44690;48.154;17.102;2022-09-09T09:51:34;99449.41;;;25.90
58909;BMP280;44690;48.154;17.102;2022-09-09T09:53:17;99439.63;;;25.87
58909;BMP280;44690;48.154;17.102;2022-09-09T09:54:52;99434.78;;;25.86
58909;BMP280;44690;48.154;17.102;2022-09-09T09:56:26;99438.94;;;25.87
58909;BMP280;44690;48.154;17.102;2022-09-09T09:58:03;99430.63;;;25.89
58909;BMP280;44690;48.154;17.102;2022-09-09T09:59:36;99442.50;;;25.93